sensor_id;sensor_type;location;lat;lon;timestamp;P1;durP1;ratioP1;P2;durP2;ratioP2
5460;SDS011;2753;49.196;8.286;2023-07-30T00:01:32;7.87;;;4.40;;
5460;SDS011;2753;49.196;8.286;2023-07-30T00:03:58;4.40;;;4.00;;
5460;SDS011;2753;49.196;8.286;2023-07-30T00:06:24;4.47;;;3.97;;
5460;SDS011;2753;49.196;8.286;2023-07-30T00:08:50;5.60;;;3.73;;
5460;SDS011;2753;49.196;8.286;2023-07-30T00:11:15;4.27;;;3.77;;
5460;SDS011;2753;49.196;8.286;2023-07-30T00:13:41;5.10;;;3.50;;
5460;SDS011;2753;49.196;8.286;2023-07-30T00:16:07;4.50;;;3.57;;
5460;SDS011;2753;49.196;8.286;2023-07-30T00:18:33;3.50;;;2.93;;
5460;SDS011;2753;49.196;8.286;2023-07-30T00:20:59;4.70;;;3.60;;
5460;SDS011;2753;49.196;8.286;2023-07-30T00:23:24;3.80;;;3.30;;
5460;SDS011;2753;49.196;8.286;2023-07-30T00:25:50;3.87;;;3.47;;
5460;SDS011;2753;49.196;8.286;2023-07-30T00:28:16;4.17;;;3.23;;
5460;SDS011;2753;49.196;8.286;2023-07-30T00:30:41;3.60;;;3.30;;
5460;SDS011;2753;49.196;8.286;2023-07-30T00:33:07;4.23;;;2.90;;
5460;SDS011;2753;49.196;8.286;2023-07-30T00:35:33;4.50;;;2.50;;
5460;SDS011;2753;49.196;8.286;2023-07-30T00:37:58;3.03;;;2.80;;
5460;SDS011;2753;49.196;8.286;2023-07-30T00:40:24;2.97;;;2.77;;
5460;SDS011;2753;49.196;8.286;2023-07-30T00:42:50;7.17;;;3.30;;
5460;SDS011;2753;49.196;8.286;2023-07-30T00:45:15;2.57;;;2.37;;
5460;SDS011;2753;49.196;8.286;2023-07-30T00:47:41;3.30;;;2.73;;
5460;SDS011;2753;49.196;8.286;2023-07-30T00:50:07;2.90;;;2.33;;
5460;SDS011;2753;49.196;8.286;2023-07-30T00:52:33;2.87;;;2.67;;
5460;SDS011;2753;49.196;8.286;2023-07-30T00:55:01;4.83;;;2.97;;
5460;SDS011;2753;49.196;8.286;2023-07-30T00:57:28;2.80;;;2.60;;
5460;SDS011;2753;49.196;8.286;2023-07-30T00:59:55;3.90;;;2.80;;
5460;SDS011;2753;49.196;8.286;2023-07-30T01:02:22;3.37;;;2.90;;
5460;SDS011;2753;49.196;8.286;2023-07-30T01:04:48;4.07;;;2.73;;
5460;SDS011;2753;49.196;8.286;2023-07-30T01:07:14;3.17;;;2.73;;
5460;SDS011;2753;49.196;8.286;2023-07-30T01:09:40;2.70;;;2.47;;
5460;SDS011;2753;49.196;8.286;2023-07-30T01:12:07;3.30;;;2.50;;
5460;SDS011;2753;49.196;8.286;2023-07-30T01:14:33;3.30;;;2.37;;
5460;SDS011;2753;49.196;8.286;2023-07-30T01:17:02;3.33;;;3.03;;
5460;SDS011;2753;49.196;8.286;2023-07-30T01:19:29;4.27;;;3.30;;
5460;SDS011;2753;49.196;8.286;2023-07-30T01:21:55;2.80;;;2.60;;
5460;SDS011;2753;49.196;8.286;2023-07-30T01:24:21;3.00;;;2.70;;
5460;SDS011;2753;49.196;8.286;2023-07-30T01:26:49;5.00;;;2.90;;
5460;SDS011;2753;49.196;8.286;2023-07-30T01:29:33;3.07;;;2.47;;
5460;SDS011;2753;49.196;8.286;2023-07-30T01:32:08;3.10;;;2.67;;
5460;SDS011;2753;49.196;8.286;2023-07-30T01:34:37;2.23;;;2.03;;
5460;SDS011;2753;49.196;8.286;2023-07-30T01:37:08;10.33;;;2.40;;
5460;SDS011;2753;49.196;8.286;2023-07-30T01:39:36;3.73;;;2.33;;
5460;SDS011;2753;49.196;8.286;2023-07-30T01:42:04;3.23;;;2.10;;
5460;SDS011;2753;49.196;8.286;2023-07-30T01:44:30;2.87;;;2.63;;
5460;SDS011;2753;49.196;8.286;2023-07-30T01:46:55;2.90;;;2.70;;
5460;SDS011;2753;49.196;8.286;2023-07-30T01:49:21;4.43;;;2.40;;
5460;SDS011;2753;49.196;8.286;2023-07-30T01:51:47;6.73;;;2.40;;
5460;SDS011;2753;49.196;8.286;2023-07-30T01:54:13;3.07;;;2.47;;
5460;SDS011;2753;49.196;8.286;2023-07-30T01:56:39;2.43;;;2.17;;
5460;SDS011;2753;49.196;8.286;2023-07-30T01:59:05;6.47;;;3.07;;
5460;SDS011;2753;49.196;8.286;2023-07-30T02:01:30;3.20;;;2.30;;
5460;SDS011;2753;49.196;8.286;2023-07-30T02:03:56;2.70;;;2.50;;
5460;SDS011;2753;49.196;8.286;2023-07-30T02:06:22;6.03;;;2.20;;
5460;SDS011;2753;49.196;8.286;2023-07-30T02:08:47;5.77;;;2.40;;
5460;SDS011;2753;49.196;8.286;2023-07-30T02:11:13;2.50;;;1.80;;
5460;SDS011;2753;49.196;8.286;2023-07-30T02:13:39;3.33;;;2.10;;
5460;SDS011;2753;49.196;8.286;2023-07-30T02:16:04;2.40;;;2.20;;
5460;SDS011;2753;49.196;8.286;2023-07-30T02:18:30;4.30;;;1.80;;
5460;SDS011;2753;49.196;8.286;2023-07-30T02:20:56;2.40;;;2.30;;
5460;SDS011;2753;49.196;8.286;2023-07-30T02:23:21;3.27;;;2.97;;
5460;SDS011;2753;49.196;8.286;2023-07-30T02:25:47;4.93;;;2.50;;
5460;SDS011;2753;49.196;8.286;2023-07-30T02:28:13;4.37;;;2.20;;
5460;SDS011;2753;49.196;8.286;2023-07-30T02:30:38;4.10;;;2.13;;
5460;SDS011;2753;49.196;8.286;2023-07-30T02:33:04;4.00;;;2.57;;
5460;SDS011;2753;49.196;8.286;2023-07-30T02:35:30;3.80;;;2.53;;
5460;SDS011;2753;49.196;8.286;2023-07-30T02:37:55;2.17;;;2.07;;
5460;SDS011;2753;49.196;8.286;2023-07-30T02:40:21;4.23;;;2.50;;
5460;SDS011;2753;49.196;8.286;2023-07-30T02:42:47;3.63;;;2.60;;
5460;SDS011;2753;49.196;8.286;2023-07-30T02:45:12;2.83;;;2.33;;
5460;SDS011;2753;49.196;8.286;2023-07-30T02:47:38;2.70;;;2.00;;
5460;SDS011;2753;49.196;8.286;2023-07-30T02:50:04;3.83;;;2.00;;
5460;SDS011;2753;49.196;8.286;2023-07-30T02:52:31;2.90;;;1.83;;
5460;SDS011;2753;49.196;8.286;2023-07-30T02:54:57;2.97;;;2.63;;
5460;SDS011;2753;49.196;8.286;2023-07-30T02:57:22;2.10;;;2.00;;
5460;SDS011;2753;49.196;8.286;2023-07-30T02:59:48;3.70;;;2.10;;
5460;SDS011;2753;49.196;8.286;2023-07-30T03:02:14;4.07;;;2.13;;
5460;SDS011;2753;49.196;8.286;2023-07-30T03:04:39;3.00;;;2.30;;
5460;SDS011;2753;49.196;8.286;2023-07-30T03:07:05;4.07;;;2.40;;
5460;SDS011;2753;49.196;8.286;2023-07-30T03:09:31;9.50;;;2.70;;
5460;SDS011;2753;49.196;8.286;2023-07-30T03:11:58;4.17;;;2.43;;
5460;SDS011;2753;49.196;8.286;2023-07-30T03:14:24;3.37;;;2.03;;
5460;SDS011;2753;49.196;8.286;2023-07-30T03:16:50;3.90;;;2.33;;
5460;SDS011;2753;49.196;8.286;2023-07-30T03:19:15;5.33;;;2.50;;
5460;SDS011;2753;49.196;8.286;2023-07-30T03:21:41;2.50;;;2.33;;
5460;SDS011;2753;49.196;8.286;2023-07-30T03:24:07;8.10;;;2.33;;
5460;SDS011;2753;49.196;8.286;2023-07-30T03:26:33;3.63;;;1.93;;
5460;SDS011;2753;49.196;8.286;2023-07-30T03:28:59;5.93;;;2.37;;
5460;SDS011;2753;49.196;8.286;2023-07-30T03:31:25;5.30;;;2.60;;
5460;SDS011;2753;49.196;8.286;2023-07-30T03:33:50;2.80;;;2.40;;
5460;SDS011;2753;49.196;8.286;2023-07-30T03:36:16;2.10;;;2.00;;
5460;SDS011;2753;49.196;8.286;2023-07-30T03:38:42;4.20;;;2.73;;
5460;SDS011;2753;49.196;8.286;2023-07-30T03:41:08;2.47;;;2.27;;
5460;SDS011;2753;49.196;8.286;2023-07-30T03:43:35;4.17;;;2.30;;
5460;SDS011;2753;49.196;8.286;2023-07-30T03:46:01;2.70;;;2.50;;
5460;SDS011;2753;49.196;8.286;2023-07-30T03:48:27;4.73;;;3.00;;
5460;SDS011;2753;49.196;8.286;2023-07-30T03:50:53;2.60;;;2.40;;
5460;SDS011;2753;49.196;8.286;2023-07-30T03:53:19;2.83;;;2.50;;
5460;SDS011;2753;49.196;8.286;2023-07-30T03:55:45;4.47;;;2.63;;
5460;SDS011;2753;49.196;8.286;2023-07-30T03:58:11;3.87;;;2.43;;
5460;SDS011;2753;49.196;8.286;2023-07-30T04:00:37;3.53;;;2.73;;
5460;SDS011;2753;49.196;8.286;2023-07-30T04:03:03;3.40;;;3.20;;
5460;SDS011;2753;49.196;8.286;2023-07-30T04:05:29;3.20;;;3.00;;
5460;SDS011;2753;49.196;8.286;2023-07-30T04:07:55;3.60;;;3.27;;
5460;SDS011;2753;49.196;8.286;2023-07-30T04:10:20;4.00;;;3.70;;
5460;SDS011;2753;49.196;8.286;2023-07-30T04:12:46;5.70;;;3.40;;
5460;SDS011;2753;49.196;8.286;2023-07-30T04:15:12;8.23;;;3.60;;
5460;SDS011;2753;49.196;8.286;2023-07-30T04:17:38;4.87;;;3.63;;
5460;SDS011;2753;49.196;8.286;2023-07-30T04:20:04;3.07;;;2.87;;
5460;SDS011;2753;49.196;8.286;2023-07-30T04:22:30;7.17;;;3.90;;
5460;SDS011;2753;49.196;8.286;2023-07-30T04:24:56;3.60;;;3.20;;
5460;SDS011;2753;49.196;8.286;2023-07-30T04:27:22;5.53;;;3.10;;
5460;SDS011;2753;49.196;8.286;2023-07-30T04:29:47;4.80;;;3.70;;
5460;SDS011;2753;49.196;8.286;2023-07-30T04:32:13;4.40;;;3.00;;
5460;SDS011;2753;49.196;8.286;2023-07-30T04:34:39;6.10;;;3.30;;
5460;SDS011;2753;49.196;8.286;2023-07-30T04:37:05;4.13;;;3.63;;
5460;SDS011;2753;49.196;8.286;2023-07-30T04:39:34;3.20;;;3.00;;
5460;SDS011;2753;49.196;8.286;2023-07-30T04:42:00;3.53;;;3.23;;
5460;SDS011;2753;49.196;8.286;2023-07-30T04:44:26;4.10;;;3.90;;
5460;SDS011;2753;49.196;8.286;2023-07-30T04:46:52;6.70;;;4.80;;
5460;SDS011;2753;49.196;8.286;2023-07-30T04:49:17;4.60;;;3.90;;
5460;SDS011;2753;49.196;8.286;2023-07-30T04:51:43;8.53;;;3.00;;
5460;SDS011;2753;49.196;8.286;2023-07-30T04:54:09;6.73;;;3.60;;
5460;SDS011;2753;49.196;8.286;2023-07-30T04:56:34;3.57;;;3.27;;
5460;SDS011;2753;49.196;8.286;2023-07-30T04:59:00;3.50;;;3.30;;
5460;SDS011;2753;49.196;8.286;2023-07-30T05:01:26;10.27;;;3.70;;
5460;SDS011;2753;49.196;8.286;2023-07-30T05:03:52;4.90;;;2.90;;
5460;SDS011;2753;49.196;8.286;2023-07-30T05:06:18;4.10;;;3.70;;
5460;SDS011;2753;49.196;8.286;2023-07-30T05:08:44;7.43;;;3.87;;
5460;SDS011;2753;49.196;8.286;2023-07-30T05:11:09;6.70;;;4.03;;
5460;SDS011;2753;49.196;8.286;2023-07-30T05:13:35;4.10;;;3.70;;
5460;SDS011;2753;49.196;8.286;2023-07-30T05:16:01;3.63;;;3.37;;
5460;SDS011;2753;49.196;8.286;2023-07-30T05:18:27;3.73;;;3.53;;
5460;SDS011;2753;49.196;8.286;2023-07-30T05:20:53;10.00;;;4.23;;
5460;SDS011;2753;49.196;8.286;2023-07-30T05:23:19;5.53;;;4.00;;
5460;SDS011;2753;49.196;8.286;2023-07-30T05:25:45;10.40;;;4.80;;
5460;SDS011;2753;49.196;8.286;2023-07-30T05:28:11;3.73;;;3.40;;
5460;SDS011;2753;49.196;8.286;2023-07-30T05:30:37;4.23;;;3.90;;
5460;SDS011;2753;49.196;8.286;2023-07-30T05:33:03;4.10;;;3.70;;
5460;SDS011;2753;49.196;8.286;2023-07-30T05:35:28;5.80;;;3.60;;
5460;SDS011;2753;49.196;8.286;2023-07-30T05:37:54;3.63;;;3.30;;
5460;SDS011;2753;49.196;8.286;2023-07-30T05:40:20;5.67;;;3.77;;
5460;SDS011;2753;49.196;8.286;2023-07-30T05:42:46;3.97;;;3.67;;
5460;SDS011;2753;49.196;8.286;2023-07-30T05:45:12;3.57;;;3.30;;
5460;SDS011;2753;49.196;8.286;2023-07-30T05:47:38;3.53;;;3.23;;
5460;SDS011;2753;49.196;8.286;2023-07-30T05:50:04;6.50;;;3.00;;
5460;SDS011;2753;49.196;8.286;2023-07-30T05:52:30;12.10;;;3.67;;
5460;SDS011;2753;49.196;8.286;2023-07-30T05:54:56;4.07;;;2.73;;
5460;SDS011;2753;49.196;8.286;2023-07-30T05:57:22;3.30;;;3.10;;
5460;SDS011;2753;49.196;8.286;2023-07-30T05:59:47;3.60;;;3.20;;
5460;SDS011;2753;49.196;8.286;2023-07-30T06:02:13;3.07;;;2.87;;
5460;SDS011;2753;49.196;8.286;2023-07-30T06:04:39;2.80;;;2.60;;
5460;SDS011;2753;49.196;8.286;2023-07-30T06:07:05;2.97;;;2.63;;
5460;SDS011;2753;49.196;8.286;2023-07-30T06:09:31;3.67;;;3.10;;
5460;SDS011;2753;49.196;8.286;2023-07-30T06:11:57;4.60;;;2.70;;
5460;SDS011;2753;49.196;8.286;2023-07-30T06:14:23;2.90;;;2.67;;
5460;SDS011;2753;49.196;8.286;2023-07-30T06:16:49;3.30;;;3.00;;
5460;SDS011;2753;49.196;8.286;2023-07-30T06:19:15;6.13;;;3.77;;
5460;SDS011;2753;49.196;8.286;2023-07-30T06:21:41;3.20;;;3.00;;
5460;SDS011;2753;49.196;8.286;2023-07-30T06:24:07;3.60;;;3.20;;
5460;SDS011;2753;49.196;8.286;2023-07-30T06:26:33;7.00;;;3.33;;
5460;SDS011;2753;49.196;8.286;2023-07-30T06:28:58;3.17;;;2.97;;
5460;SDS011;2753;49.196;8.286;2023-07-30T06:31:24;4.90;;;3.23;;
5460;SDS011;2753;49.196;8.286;2023-07-30T06:33:50;3.43;;;3.07;;
5460;SDS011;2753;49.196;8.286;2023-07-30T06:36:16;3.87;;;3.63;;
5460;SDS011;2753;49.196;8.286;2023-07-30T06:38:41;4.97;;;3.53;;
5460;SDS011;2753;49.196;8.286;2023-07-30T06:41:07;6.03;;;3.20;;
5460;SDS011;2753;49.196;8.286;2023-07-30T06:43:33;3.10;;;2.90;;
5460;SDS011;2753;49.196;8.286;2023-07-30T06:45:58;3.23;;;2.90;;
5460;SDS011;2753;49.196;8.286;2023-07-30T06:48:24;6.30;;;3.17;;
5460;SDS011;2753;49.196;8.286;2023-07-30T06:50:50;3.30;;;2.90;;
5460;SDS011;2753;49.196;8.286;2023-07-30T06:53:15;2.50;;;2.30;;
5460;SDS011;2753;49.196;8.286;2023-07-30T06:55:41;3.37;;;3.17;;
5460;SDS011;2753;49.196;8.286;2023-07-30T06:58:07;3.23;;;2.93;;
5460;SDS011;2753;49.196;8.286;2023-07-30T07:00:32;3.47;;;3.23;;
5460;SDS011;2753;49.196;8.286;2023-07-30T07:02:58;3.47;;;3.17;;
5460;SDS011;2753;49.196;8.286;2023-07-30T07:05:24;3.10;;;2.40;;
5460;SDS011;2753;49.196;8.286;2023-07-30T07:07:50;3.80;;;3.10;;
5460;SDS011;2753;49.196;8.286;2023-07-30T07:10:15;4.70;;;3.37;;
5460;SDS011;2753;49.196;8.286;2023-07-30T07:12:41;8.10;;;2.80;;
5460;SDS011;2753;49.196;8.286;2023-07-30T07:15:07;5.13;;;2.43;;
5460;SDS011;2753;49.196;8.286;2023-07-30T07:17:33;5.50;;;2.67;;
5460;SDS011;2753;49.196;8.286;2023-07-30T07:20:00;5.23;;;2.87;;
5460;SDS011;2753;49.196;8.286;2023-07-30T07:22:26;4.17;;;2.80;;
5460;SDS011;2753;49.196;8.286;2023-07-30T07:24:52;3.90;;;2.97;;
5460;SDS011;2753;49.196;8.286;2023-07-30T07:27:20;3.97;;;2.67;;
5460;SDS011;2753;49.196;8.286;2023-07-30T07:29:49;4.10;;;3.70;;
5460;SDS011;2753;49.196;8.286;2023-07-30T07:32:15;2.90;;;2.70;;
5460;SDS011;2753;49.196;8.286;2023-07-30T07:34:40;3.27;;;3.07;;
5460;SDS011;2753;49.196;8.286;2023-07-30T07:37:06;3.40;;;3.20;;
5460;SDS011;2753;49.196;8.286;2023-07-30T07:39:32;2.47;;;2.33;;
5460;SDS011;2753;49.196;8.286;2023-07-30T07:41:58;4.50;;;2.70;;
5460;SDS011;2753;49.196;8.286;2023-07-30T07:44:24;9.47;;;2.83;;
5460;SDS011;2753;49.196;8.286;2023-07-30T07:46:50;5.13;;;2.00;;
5460;SDS011;2753;49.196;8.286;2023-07-30T07:49:15;3.00;;;2.80;;
5460;SDS011;2753;49.196;8.286;2023-07-30T07:51:41;3.10;;;2.20;;
5460;SDS011;2753;49.196;8.286;2023-07-30T07:54:07;2.33;;;2.10;;
5460;SDS011;2753;49.196;8.286;2023-07-30T07:56:32;5.83;;;2.90;;
5460;SDS011;2753;49.196;8.286;2023-07-30T07:58:58;3.30;;;3.00;;
5460;SDS011;2753;49.196;8.286;2023-07-30T08:01:24;6.57;;;2.60;;
5460;SDS011;2753;49.196;8.286;2023-07-30T08:03:50;2.50;;;2.30;;
5460;SDS011;2753;49.196;8.286;2023-07-30T08:06:16;3.03;;;2.27;;
5460;SDS011;2753;49.196;8.286;2023-07-30T08:08:41;2.07;;;1.97;;
5460;SDS011;2753;49.196;8.286;2023-07-30T08:11:07;2.80;;;2.03;;
5460;SDS011;2753;49.196;8.286;2023-07-30T08:13:34;2.47;;;2.10;;
5460;SDS011;2753;49.196;8.286;2023-07-30T08:16:01;3.60;;;2.40;;
5460;SDS011;2753;49.196;8.286;2023-07-30T08:18:27;1.80;;;1.70;;
5460;SDS011;2753;49.196;8.286;2023-07-30T08:20:53;11.47;;;2.70;;
5460;SDS011;2753;49.196;8.286;2023-07-30T08:23:18;2.10;;;2.00;;
5460;SDS011;2753;49.196;8.286;2023-07-30T08:25:44;2.43;;;2.03;;
5460;SDS011;2753;49.196;8.286;2023-07-30T08:28:10;3.00;;;1.60;;
5460;SDS011;2753;49.196;8.286;2023-07-30T08:30:36;3.93;;;2.00;;
5460;SDS011;2753;49.196;8.286;2023-07-30T08:33:01;6.00;;;2.60;;
5460;SDS011;2753;49.196;8.286;2023-07-30T08:35:27;2.60;;;2.30;;
5460;SDS011;2753;49.196;8.286;2023-07-30T08:37:53;1.87;;;1.73;;
5460;SDS011;2753;49.196;8.286;2023-07-30T08:40:22;2.50;;;1.87;;
5460;SDS011;2753;49.196;8.286;2023-07-30T08:42:52;12.23;;;2.80;;
5460;SDS011;2753;49.196;8.286;2023-07-30T08:45:19;1.90;;;1.80;;
5460;SDS011;2753;49.196;8.286;2023-07-30T08:47:45;1.53;;;1.43;;
5460;SDS011;2753;49.196;8.286;2023-07-30T08:50:12;1.67;;;1.57;;
5460;SDS011;2753;49.196;8.286;2023-07-30T08:52:38;2.60;;;2.33;;
5460;SDS011;2753;49.196;8.286;2023-07-30T08:55:05;1.80;;;1.70;;
5460;SDS011;2753;49.196;8.286;2023-07-30T08:57:31;1.80;;;1.70;;
5460;SDS011;2753;49.196;8.286;2023-07-30T09:00:02;1.80;;;1.70;;
5460;SDS011;2753;49.196;8.286;2023-07-30T09:02:34;3.33;;;1.90;;
5460;SDS011;2753;49.196;8.286;2023-07-30T09:05:04;2.83;;;1.70;;
5460;SDS011;2753;49.196;8.286;2023-07-30T09:07:31;3.17;;;2.10;;
5460;SDS011;2753;49.196;8.286;2023-07-30T09:09:56;6.00;;;2.10;;
5460;SDS011;2753;49.196;8.286;2023-07-30T09:12:26;2.73;;;1.80;;
5460;SDS011;2753;49.196;8.286;2023-07-30T09:14:56;2.47;;;2.03;;
5460;SDS011;2753;49.196;8.286;2023-07-30T09:17:21;2.00;;;1.80;;
5460;SDS011;2753;49.196;8.286;2023-07-30T09:19:47;1.80;;;1.67;;
5460;SDS011;2753;49.196;8.286;2023-07-30T09:22:25;3.30;;;2.10;;
5460;SDS011;2753;49.196;8.286;2023-07-30T09:24:52;1.83;;;1.67;;
5460;SDS011;2753;49.196;8.286;2023-07-30T09:27:22;1.87;;;1.47;;
5460;SDS011;2753;49.196;8.286;2023-07-30T09:29:51;2.40;;;1.87;;
5460;SDS011;2753;49.196;8.286;2023-07-30T09:32:18;5.80;;;1.90;;
5460;SDS011;2753;49.196;8.286;2023-07-30T09:34:44;2.07;;;1.87;;
5460;SDS011;2753;49.196;8.286;2023-07-30T09:37:11;2.27;;;2.10;;
5460;SDS011;2753;49.196;8.286;2023-07-30T09:39:37;2.90;;;1.43;;
5460;SDS011;2753;49.196;8.286;2023-07-30T09:42:03;3.83;;;2.13;;
5460;SDS011;2753;49.196;8.286;2023-07-30T09:44:32;1.67;;;1.57;;
5460;SDS011;2753;49.196;8.286;2023-07-30T09:47:01;4.53;;;1.73;;
5460;SDS011;2753;49.196;8.286;2023-07-30T09:49:30;1.63;;;1.53;;
5460;SDS011;2753;49.196;8.286;2023-07-30T09:51:57;1.63;;;1.37;;
5460;SDS011;2753;49.196;8.286;2023-07-30T09:54:23;1.73;;;1.63;;
5460;SDS011;2753;49.196;8.286;2023-07-30T09:56:49;5.33;;;1.93;;
5460;SDS011;2753;49.196;8.286;2023-07-30T09:59:15;3.27;;;1.20;;
5460;SDS011;2753;49.196;8.286;2023-07-30T10:01:41;2.60;;;1.90;;
5460;SDS011;2753;49.196;8.286;2023-07-30T10:04:09;1.87;;;1.50;;
5460;SDS011;2753;49.196;8.286;2023-07-30T10:06:40;2.60;;;2.20;;
5460;SDS011;2753;49.196;8.286;2023-07-30T10:09:10;2.07;;;1.67;;
5460;SDS011;2753;49.196;8.286;2023-07-30T10:11:37;2.90;;;1.40;;
5460;SDS011;2753;49.196;8.286;2023-07-30T10:14:04;3.13;;;1.70;;
5460;SDS011;2753;49.196;8.286;2023-07-30T10:16:31;1.93;;;1.17;;
5460;SDS011;2753;49.196;8.286;2023-07-30T10:18:56;2.00;;;1.07;;
5460;SDS011;2753;49.196;8.286;2023-07-30T10:21:24;2.80;;;1.53;;
5460;SDS011;2753;49.196;8.286;2023-07-30T10:23:58;1.60;;;1.50;;
5460;SDS011;2753;49.196;8.286;2023-07-30T10:26:26;2.00;;;1.80;;
5460;SDS011;2753;49.196;8.286;2023-07-30T10:29:15;1.70;;;1.60;;
5460;SDS011;2753;49.196;8.286;2023-07-30T10:31:53;6.10;;;1.43;;
5460;SDS011;2753;49.196;8.286;2023-07-30T10:34:20;0.93;;;0.93;;
5460;SDS011;2753;49.196;8.286;2023-07-30T10:36:50;1.20;;;1.10;;
5460;SDS011;2753;49.196;8.286;2023-07-30T10:39:35;4.40;;;1.13;;
5460;SDS011;2753;49.196;8.286;2023-07-30T10:42:01;8.50;;;1.67;;
5460;SDS011;2753;49.196;8.286;2023-07-30T10:44:27;1.20;;;1.10;;
5460;SDS011;2753;49.196;8.286;2023-07-30T10:46:56;1.53;;;0.80;;
5460;SDS011;2753;49.196;8.286;2023-07-30T10:49:24;5.23;;;1.00;;
5460;SDS011;2753;49.196;8.286;2023-07-30T10:51:53;2.37;;;1.10;;
5460;SDS011;2753;49.196;8.286;2023-07-30T10:54:20;1.67;;;1.07;;
5460;SDS011;2753;49.196;8.286;2023-07-30T10:56:47;2.23;;;1.30;;
5460;SDS011;2753;49.196;8.286;2023-07-30T10:59:13;1.57;;;1.10;;
5460;SDS011;2753;49.196;8.286;2023-07-30T11:01:41;1.47;;;1.17;;
5460;SDS011;2753;49.196;8.286;2023-07-30T11:06:46;1.60;;;1.10;;
5460;SDS011;2753;49.196;8.286;2023-07-30T11:09:23;3.53;;;1.10;;
5460;SDS011;2753;49.196;8.286;2023-07-30T11:11:50;1.37;;;1.27;;
5460;SDS011;2753;49.196;8.286;2023-07-30T11:14:21;9.27;;;1.30;;
5460;SDS011;2753;49.196;8.286;2023-07-30T11:16:51;3.10;;;1.10;;
5460;SDS011;2753;49.196;8.286;2023-07-30T11:19:18;6.40;;;1.20;;
5460;SDS011;2753;49.196;8.286;2023-07-30T11:21:45;1.23;;;1.00;;
5460;SDS011;2753;49.196;8.286;2023-07-30T11:24:14;2.73;;;1.27;;
5460;SDS011;2753;49.196;8.286;2023-07-30T11:26:40;3.80;;;1.80;;
5460;SDS011;2753;49.196;8.286;2023-07-30T11:29:16;2.90;;;1.00;;
5460;SDS011;2753;49.196;8.286;2023-07-30T11:31:43;6.00;;;1.00;;
5460;SDS011;2753;49.196;8.286;2023-07-30T11:34:10;1.50;;;1.40;;
5460;SDS011;2753;49.196;8.286;2023-07-30T11:36:36;4.03;;;1.30;;
5460;SDS011;2753;49.196;8.286;2023-07-30T11:39:03;2.80;;;1.50;;
5460;SDS011;2753;49.196;8.286;2023-07-30T11:41:32;1.90;;;1.40;;
5460;SDS011;2753;49.196;8.286;2023-07-30T11:43:58;1.63;;;1.23;;
5460;SDS011;2753;49.196;8.286;2023-07-30T11:46:24;5.00;;;1.43;;
5460;SDS011;2753;49.196;8.286;2023-07-30T11:48:51;3.00;;;1.33;;
5460;SDS011;2753;49.196;8.286;2023-07-30T11:53:57;4.37;;;1.60;;
5460;SDS011;2753;49.196;8.286;2023-07-30T11:59:10;4.13;;;1.13;;
5460;SDS011;2753;49.196;8.286;2023-07-30T12:01:36;1.60;;;1.50;;
5460;SDS011;2753;49.196;8.286;2023-07-30T12:04:05;4.60;;;1.47;;
5460;SDS011;2753;49.196;8.286;2023-07-30T12:06:45;2.70;;;1.40;;
5460;SDS011;2753;49.196;8.286;2023-07-30T12:09:18;1.67;;;1.23;;
5460;SDS011;2753;49.196;8.286;2023-07-30T12:14:26;5.07;;;1.80;;
5460;SDS011;2753;49.196;8.286;2023-07-30T12:16:58;4.30;;;2.07;;
5460;SDS011;2753;49.196;8.286;2023-07-30T12:19:25;4.23;;;1.50;;
5460;SDS011;2753;49.196;8.286;2023-07-30T12:21:51;3.27;;;1.87;;
5460;SDS011;2753;49.196;8.286;2023-07-30T12:24:18;4.10;;;1.33;;
5460;SDS011;2753;49.196;8.286;2023-07-30T12:26:43;8.50;;;1.40;;
5460;SDS011;2753;49.196;8.286;2023-07-30T12:29:09;1.90;;;1.10;;
5460;SDS011;2753;49.196;8.286;2023-07-30T12:31:35;3.37;;;1.50;;
5460;SDS011;2753;49.196;8.286;2023-07-30T12:34:00;3.93;;;1.70;;
5460;SDS011;2753;49.196;8.286;2023-07-30T12:36:26;6.60;;;1.13;;
5460;SDS011;2753;49.196;8.286;2023-07-30T12:38:52;4.47;;;1.77;;
5460;SDS011;2753;49.196;8.286;2023-07-30T12:41:19;3.17;;;1.47;;
5460;SDS011;2753;49.196;8.286;2023-07-30T12:43:51;4.40;;;1.83;;
5460;SDS011;2753;49.196;8.286;2023-07-30T12:46:18;2.00;;;1.80;;
5460;SDS011;2753;49.196;8.286;2023-07-30T12:48:44;6.27;;;1.67;;
5460;SDS011;2753;49.196;8.286;2023-07-30T12:51:10;4.03;;;1.33;;
5460;SDS011;2753;49.196;8.286;2023-07-30T12:53:35;4.80;;;1.70;;
5460;SDS011;2753;49.196;8.286;2023-07-30T12:56:01;4.20;;;1.50;;
5460;SDS011;2753;49.196;8.286;2023-07-30T12:58:27;8.07;;;2.37;;
5460;SDS011;2753;49.196;8.286;2023-07-30T13:00:52;3.00;;;1.70;;
5460;SDS011;2753;49.196;8.286;2023-07-30T13:03:18;8.97;;;1.50;;
5460;SDS011;2753;49.196;8.286;2023-07-30T13:05:44;3.57;;;1.77;;
5460;SDS011;2753;49.196;8.286;2023-07-30T13:08:10;2.90;;;1.33;;
5460;SDS011;2753;49.196;8.286;2023-07-30T13:10:35;8.10;;;1.97;;
5460;SDS011;2753;49.196;8.286;2023-07-30T13:13:01;2.57;;;1.57;;
5460;SDS011;2753;49.196;8.286;2023-07-30T13:15:27;4.07;;;1.70;;
5460;SDS011;2753;49.196;8.286;2023-07-30T13:17:53;9.00;;;1.90;;
5460;SDS011;2753;49.196;8.286;2023-07-30T13:20:19;9.97;;;1.97;;
5460;SDS011;2753;49.196;8.286;2023-07-30T13:22:44;3.73;;;1.13;;
5460;SDS011;2753;49.196;8.286;2023-07-30T13:25:10;2.50;;;1.40;;
5460;SDS011;2753;49.196;8.286;2023-07-30T13:27:36;4.53;;;1.23;;
5460;SDS011;2753;49.196;8.286;2023-07-30T13:30:02;3.90;;;1.20;;
5460;SDS011;2753;49.196;8.286;2023-07-30T13:32:27;5.07;;;1.83;;
5460;SDS011;2753;49.196;8.286;2023-07-30T13:34:53;9.27;;;1.40;;
5460;SDS011;2753;49.196;8.286;2023-07-30T13:37:19;2.80;;;1.50;;
5460;SDS011;2753;49.196;8.286;2023-07-30T13:39:44;4.80;;;2.00;;
5460;SDS011;2753;49.196;8.286;2023-07-30T13:42:10;1.73;;;1.27;;
5460;SDS011;2753;49.196;8.286;2023-07-30T13:44:36;4.77;;;1.63;;
5460;SDS011;2753;49.196;8.286;2023-07-30T13:47:02;6.10;;;1.30;;
5460;SDS011;2753;49.196;8.286;2023-07-30T13:49:27;1.10;;;0.90;;
5460;SDS011;2753;49.196;8.286;2023-07-30T13:51:53;6.93;;;1.60;;
5460;SDS011;2753;49.196;8.286;2023-07-30T13:54:19;4.33;;;1.20;;
5460;SDS011;2753;49.196;8.286;2023-07-30T13:56:44;3.80;;;1.07;;
5460;SDS011;2753;49.196;8.286;2023-07-30T13:59:10;5.43;;;1.03;;
5460;SDS011;2753;49.196;8.286;2023-07-30T14:01:36;6.80;;;1.13;;
5460;SDS011;2753;49.196;8.286;2023-07-30T14:04:01;7.13;;;1.40;;
5460;SDS011;2753;49.196;8.286;2023-07-30T14:06:27;5.30;;;1.60;;
5460;SDS011;2753;49.196;8.286;2023-07-30T14:08:54;3.40;;;1.40;;
5460;SDS011;2753;49.196;8.286;2023-07-30T14:11:19;4.63;;;1.20;;
5460;SDS011;2753;49.196;8.286;2023-07-30T14:13:45;2.57;;;1.33;;
5460;SDS011;2753;49.196;8.286;2023-07-30T14:16:11;3.97;;;0.97;;
5460;SDS011;2753;49.196;8.286;2023-07-30T14:18:36;4.80;;;1.60;;
5460;SDS011;2753;49.196;8.286;2023-07-30T14:21:04;2.13;;;1.20;;
5460;SDS011;2753;49.196;8.286;2023-07-30T14:23:29;1.67;;;1.37;;
5460;SDS011;2753;49.196;8.286;2023-07-30T14:25:55;1.33;;;1.00;;
5460;SDS011;2753;49.196;8.286;2023-07-30T14:28:21;5.60;;;1.27;;
5460;SDS011;2753;49.196;8.286;2023-07-30T14:30:46;2.60;;;1.43;;
5460;SDS011;2753;49.196;8.286;2023-07-30T14:33:12;3.17;;;0.97;;
5460;SDS011;2753;49.196;8.286;2023-07-30T14:35:38;5.80;;;1.30;;
5460;SDS011;2753;49.196;8.286;2023-07-30T14:38:04;16.27;;;1.70;;
5460;SDS011;2753;49.196;8.286;2023-07-30T14:40:30;6.50;;;1.20;;
5460;SDS011;2753;49.196;8.286;2023-07-30T14:42:57;2.87;;;1.23;;
5460;SDS011;2753;49.196;8.286;2023-07-30T14:45:23;4.87;;;1.40;;
5460;SDS011;2753;49.196;8.286;2023-07-30T14:47:49;2.57;;;1.10;;
5460;SDS011;2753;49.196;8.286;2023-07-30T14:50:14;3.07;;;1.27;;
5460;SDS011;2753;49.196;8.286;2023-07-30T14:52:40;3.87;;;1.30;;
5460;SDS011;2753;49.196;8.286;2023-07-30T14:55:06;5.47;;;2.00;;
5460;SDS011;2753;49.196;8.286;2023-07-30T14:57:32;2.30;;;1.00;;
5460;SDS011;2753;49.196;8.286;2023-07-30T14:59:58;2.33;;;1.37;;
5460;SDS011;2753;49.196;8.286;2023-07-30T15:02:25;4.50;;;1.70;;
5460;SDS011;2753;49.196;8.286;2023-07-30T15:04:53;2.23;;;1.30;;
5460;SDS011;2753;49.196;8.286;2023-07-30T15:07:20;1.70;;;1.10;;
5460;SDS011;2753;49.196;8.286;2023-07-30T15:09:50;7.90;;;1.43;;
5460;SDS011;2753;49.196;8.286;2023-07-30T15:12:20;3.73;;;1.40;;
5460;SDS011;2753;49.196;8.286;2023-07-30T15:14:47;2.80;;;1.47;;
5460;SDS011;2753;49.196;8.286;2023-07-30T15:17:14;2.33;;;1.13;;
5460;SDS011;2753;49.196;8.286;2023-07-30T15:19:39;2.93;;;1.13;;
5460;SDS011;2753;49.196;8.286;2023-07-30T15:22:05;3.60;;;1.60;;